Time;durP1;ratioP1;P1;durP2;ratioP2;P2;SDS_P1;SDS_P2;PMS_P1;PMS_P2;Temp;Humidity;BMP_temperature;BMP_pressure;BME280_temperature;BME280_humidity;BME280_pressure;Samples;Min_cycle;Max_cycle;Signal;HPM_P1;HPM_P2
2024/02/15 00:00:07;;;;;;;3.85;3.45;;;;;;;;;;4938463;29;20711;-67
2024/02/15 00:02:36;;;;;;;4.40;3.93;;;;;;;;;;4944074;29;20218;-67
2024/02/15 00:05:04;;;;;;;5.20;3.17;;;;;;;;;;4952265;29;20624;-67
2024/02/15 00:07:34;;;;;;;3.60;3.30;;;;;;;;;;4947806;29;20205;-66
2024/02/15 00:10:04;;;;;;;3.23;2.93;;;;;;;;;;4937485;29;20671;-66
2024/02/15 00:12:34;;;;;;;5.30;2.90;;;;;;;;;;4943810;29;20674;-66
2024/02/15 00:15:02;;;;;;;6.97;3.80;;;;;;;;;;4952280;29;20714;-66
2024/02/15 00:17:32;;;;;;;5.10;3.80;;;;;;;;;;4951372;28;20214;-66
2024/02/15 00:20:00;;;;;;;3.87;3.57;;;;;;;;;;4931693;29;20201;-66
2024/02/15 00:22:29;;;;;;;4.90;3.42;;;;;;;;;;4941861;29;20630;-69
2024/02/15 00:24:58;;;;;;;5.20;4.07;;;;;;;;;;4935853;29;20214;-67
2024/02/15 00:27:26;;;;;;;4.93;4.43;;;;;;;;;;4949707;29;20621;-70
2024/02/15 00:29:56;;;;;;;6.30;3.57;;;;;;;;;;4934626;29;20220;-71
2024/02/15 00:32:24;;;;;;;4.50;3.47;;;;;;;;;;4948519;29;21352;-70
2024/02/15 00:34:53;;;;;;;4.33;3.67;;;;;;;;;;4951240;29;20631;-70
2024/02/15 00:37:22;;;;;;;9.30;5.00;;;;;;;;;;4947103;29;21217;-70
2024/02/15 00:39:50;;;;;;;8.57;6.63;;;;;;;;;;4950809;29;20203;-71
2024/02/15 00:42:18;;;;;;;12.80;8.17;;;;;;;;;;4942796;29;20638;-70
2024/02/15 00:44:47;;;;;;;14.20;7.23;;;;;;;;;;4930747;29;20670;-69
2024/02/15 00:47:19;;;;;;;11.87;6.70;;;;;;;;;;4931379;29;20628;-69
2024/02/15 00:49:50;;;;;;;7.23;5.70;;;;;;;;;;4932004;29;20609;-68
2024/02/15 00:52:18;;;;;;;8.00;5.43;;;;;;;;;;4938877;29;20626;-69
2024/02/15 00:54:46;;;;;;;12.60;8.70;;;;;;;;;;4933998;29;20969;-69
2024/02/15 00:57:14;;;;;;;10.67;6.93;;;;;;;;;;4939688;29;20624;-68
2024/02/15 00:59:43;;;;;;;10.75;6.20;;;;;;;;;;4932068;29;20617;-69
2024/02/15 01:02:12;;;;;;;10.50;7.68;;;;;;;;;;4937500;29;20203;-69
2024/02/15 01:04:42;;;;;;;15.50;9.90;;;;;;;;;;4949431;29;20702;-69
2024/02/15 01:07:10;;;;;;;7.63;5.30;;;;;;;;;;4949985;29;20567;-69
2024/02/15 01:09:39;;;;;;;8.33;5.63;;;;;;;;;;4950336;29;21016;-69
2024/02/15 01:12:07;;;;;;;12.87;7.90;;;;;;;;;;4943240;29;20639;-69
2024/02/15 01:14:37;;;;;;;10.77;7.00;;;;;;;;;;4931269;29;21200;-70
2024/02/15 01:17:05;;;;;;;12.60;8.83;;;;;;;;;;4941481;29;20969;-68
2024/02/15 01:19:34;;;;;;;8.10;6.23;;;;;;;;;;4950648;29;20626;-69
2024/02/15 01:22:06;;;;;;;7.93;4.63;;;;;;;;;;4944910;29;20627;-69
2024/02/15 01:24:35;;;;;;;8.27;4.00;;;;;;;;;;4931351;29;20647;-69
2024/02/15 01:27:03;;;;;;;5.47;4.97;;;;;;;;;;4931370;29;21049;-69
2024/02/15 01:29:32;;;;;;;8.40;5.07;;;;;;;;;;4947506;29;20620;-69
2024/02/15 01:32:01;;;;;;;11.80;6.87;;;;;;;;;;4948301;29;20635;-68
2024/02/15 01:34:29;;;;;;;6.33;4.97;;;;;;;;;;4935672;29;20620;-69
2024/02/15 01:36:57;;;;;;;6.43;4.70;;;;;;;;;;4934547;29;20624;-69
2024/02/15 01:39:27;;;;;;;13.20;8.17;;;;;;;;;;4952270;28;20631;-69
2024/02/15 01:41:56;;;;;;;8.40;5.90;;;;;;;;;;4949130;29;20628;-69
2024/02/15 01:44:24;;;;;;;8.07;6.87;;;;;;;;;;4933396;29;20626;-71
2024/02/15 01:46:53;;;;;;;10.47;6.80;;;;;;;;;;4942520;29;20627;-68
2024/02/15 01:49:22;;;;;;;6.90;5.60;;;;;;;;;;4916575;29;20579;-68
2024/02/15 01:51:54;;;;;;;5.83;5.33;;;;;;;;;;4942538;29;20652;-68
2024/02/15 01:54:23;;;;;;;9.85;7.15;;;;;;;;;;4934347;29;21194;-69
2024/02/15 01:56:52;;;;;;;7.97;6.27;;;;;;;;;;4933932;29;20209;-69
2024/02/15 01:59:21;;;;;;;9.85;6.70;;;;;;;;;;4916548;29;20620;-68
2024/02/15 02:01:49;;;;;;;7.83;5.07;;;;;;;;;;4936880;29;20206;-67
2024/02/15 02:04:17;;;;;;;7.03;5.63;;;;;;;;;;4937334;29;21003;-65
2024/02/15 02:06:46;;;;;;;7.80;6.10;;;;;;;;;;4945174;29;20627;-65
2024/02/15 02:09:14;;;;;;;7.57;6.18;;;;;;;;;;4952205;29;20204;-66
2024/02/15 02:11:43;;;;;;;5.20;4.80;;;;;;;;;;4951873;29;20224;-66
2024/02/15 02:14:12;;;;;;;6.63;5.85;;;;;;;;;;4937541;29;20201;-67
2024/02/15 02:16:41;;;;;;;8.57;5.88;;;;;;;;;;4953443;29;20336;-65
2024/02/15 02:19:09;;;;;;;5.82;4.75;;;;;;;;;;4936154;29;20562;-66
2024/02/15 02:21:39;;;;;;;6.20;5.13;;;;;;;;;;4942408;29;20207;-66
2024/02/15 02:24:15;;;;;;;6.13;4.57;;;;;;;;;;4935764;29;20205;-68
2024/02/15 02:26:45;;;;;;;5.47;4.38;;;;;;;;;;4938291;29;20574;-65
2024/02/15 02:29:13;;;;;;;4.78;4.25;;;;;;;;;;4936522;29;20212;-65
2024/02/15 02:31:42;;;;;;;3.63;3.33;;;;;;;;;;4935908;29;20225;-65
2024/02/15 02:34:10;;;;;;;10.90;4.85;;;;;;;;;;4953605;29;20224;-66
2024/02/15 02:36:40;;;;;;;6.28;4.25;;;;;;;;;;4951452;29;20569;-65
2024/02/15 02:39:08;;;;;;;8.70;4.17;;;;;;;;;;4935667;29;20224;-65
2024/02/15 02:41:37;;;;;;;9.02;4.55;;;;;;;;;;4934923;29;20615;-68
2024/02/15 02:44:06;;;;;;;6.17;4.70;;;;;;;;;;4876323;29;1905852;-65
2024/02/15 02:46:35;;;;;;;6.32;3.92;;;;;;;;;;4926151;29;20610;-66
2024/02/15 02:49:03;;;;;;;13.63;4.60;;;;;;;;;;4954221;29;20214;-65
2024/02/15 02:51:31;;;;;;;4.82;4.43;;;;;;;;;;4945198;29;20216;-65
2024/02/15 02:54:01;;;;;;;3.72;3.00;;;;;;;;;;4940227;29;20197;-65
2024/02/15 02:56:29;;;;;;;4.05;3.65;;;;;;;;;;4934864;29;20208;-66
2024/02/15 02:58:57;;;;;;;4.00;3.60;;;;;;;;;;4935641;29;20293;-65
2024/02/15 03:01:27;;;;;;;4.70;3.85;;;;;;;;;;4934396;29;20209;-66
2024/02/15 03:03:56;;;;;;;4.43;3.55;;;;;;;;;;4941014;29;20216;-65
2024/02/15 03:06:24;;;;;;;6.57;4.55;;;;;;;;;;4944933;29;20200;-66
2024/02/15 03:08:54;;;;;;;4.38;3.97;;;;;;;;;;4951891;29;20856;-65
2024/02/15 03:11:22;;;;;;;4.05;3.60;;;;;;;;;;4943293;29;20218;-65
2024/02/15 03:13:50;;;;;;;6.60;3.40;;;;;;;;;;4946028;29;20226;-65
2024/02/15 03:16:18;;;;;;;5.38;3.70;;;;;;;;;;4953771;29;20282;-66
2024/02/15 03:18:48;;;;;;;5.07;3.75;;;;;;;;;;4946735;29;20209;-65
2024/02/15 03:21:17;;;;;;;3.70;3.35;;;;;;;;;;4942540;29;20699;-66
2024/02/15 03:23:45;;;;;;;3.72;3.38;;;;;;;;;;4936434;29;20205;-66
2024/02/15 03:26:14;;;;;;;4.20;3.80;;;;;;;;;;4939247;29;20214;-66
2024/02/15 03:28:42;;;;;;;5.68;3.78;;;;;;;;;;4917529;29;20204;-66
2024/02/15 03:31:11;;;;;;;6.53;4.35;;;;;;;;;;4939950;29;20212;-65
2024/02/15 03:33:39;;;;;;;6.47;3.65;;;;;;;;;;4944262;28;20200;-66
2024/02/15 03:36:10;;;;;;;5.90;4.57;;;;;;;;;;4949876;29;20210;-64
2024/02/15 03:38:38;;;;;;;6.00;4.47;;;;;;;;;;4943684;29;20200;-65
2024/02/15 03:41:06;;;;;;;5.10;3.95;;;;;;;;;;4938866;29;20247;-65
2024/02/15 03:43:34;;;;;;;6.90;4.35;;;;;;;;;;4936081;29;20241;-66
2024/02/15 03:46:03;;;;;;;9.82;4.30;;;;;;;;;;4934286;29;20217;-65
2024/02/15 03:48:32;;;;;;;6.68;4.38;;;;;;;;;;4917751;29;20211;-66
2024/02/15 03:51:01;;;;;;;6.10;4.70;;;;;;;;;;4945354;29;20192;-65
2024/02/15 03:53:33;;;;;;;6.50;4.72;;;;;;;;;;4944487;29;20226;-66
2024/02/15 03:56:01;;;;;;;6.07;4.45;;;;;;;;;;4931456;29;20208;-65
2024/02/15 03:58:30;;;;;;;8.05;4.20;;;;;;;;;;4916860;29;20204;-65
2024/02/15 04:00:58;;;;;;;5.78;4.22;;;;;;;;;;4948911;29;20706;-68
2024/02/15 04:03:27;;;;;;;9.88;5.15;;;;;;;;;;4950832;29;20858;-67
2024/02/15 04:05:55;;;;;;;5.03;3.85;;;;;;;;;;4923579;29;20205;-66
2024/02/15 04:08:23;;;;;;;7.05;4.43;;;;;;;;;;4947245;29;20199;-65
2024/02/15 04:10:53;;;;;;;7.38;4.35;;;;;;;;;;4951038;29;20235;-65
2024/02/15 04:13:21;;;;;;;4.80;4.30;;;;;;;;;;4951565;29;20220;-66
2024/02/15 04:15:50;;;;;;;4.80;4.40;;;;;;;;;;4947706;29;20628;-67
2024/02/15 04:18:19;;;;;;;5.90;4.47;;;;;;;;;;4947639;29;20646;-66
2024/02/15 04:20:48;;;;;;;9.57;5.07;;;;;;;;;;4950916;29;20200;-65
2024/02/15 04:23:16;;;;;;;5.20;4.55;;;;;;;;;;4944177;29;20197;-68
2024/02/15 04:25:50;;;;;;;6.37;4.20;;;;;;;;;;4944871;29;20597;-66
2024/02/15 04:28:20;;;;;;;4.67;4.27;;;;;;;;;;4932612;29;20666;-66
2024/02/15 04:30:48;;;;;;;6.13;4.40;;;;;;;;;;4949714;29;20635;-66
2024/02/15 04:33:16;;;;;;;7.43;4.20;;;;;;;;;;4940849;29;21267;-65
2024/02/15 04:35:45;;;;;;;5.15;4.63;;;;;;;;;;4947833;29;20620;-65
2024/02/15 04:38:13;;;;;;;7.30;6.70;;;;;;;;;;4915817;29;20196;-65
2024/02/15 04:40:41;;;;;;;7.05;4.88;;;;;;;;;;4917125;29;20200;-65
2024/02/15 04:43:10;;;;;;;6.97;4.43;;;;;;;;;;4945493;28;20228;-67
2024/02/15 04:45:39;;;;;;;6.10;4.67;;;;;;;;;;4935855;29;20628;-66
2024/02/15 04:48:08;;;;;;;5.90;5.32;;;;;;;;;;4951716;29;21187;-65
2024/02/15 04:50:37;;;;;;;5.87;4.00;;;;;;;;;;4942253;29;20206;-64
2024/02/15 04:53:07;;;;;;;5.45;4.78;;;;;;;;;;4940600;29;20660;-65
2024/02/15 04:55:35;;;;;;;7.70;4.37;;;;;;;;;;4934410;29;20212;-65
2024/02/15 04:58:04;;;;;;;10.10;4.40;;;;;;;;;;4951778;29;21326;-66
2024/02/15 05:00:32;;;;;;;4.72;4.00;;;;;;;;;;4917324;29;20619;-65
2024/02/15 05:03:02;;;;;;;7.00;4.57;;;;;;;;;;4938607;29;20197;-65
2024/02/15 05:05:30;;;;;;;5.78;4.80;;;;;;;;;;4933144;29;20627;-64
2024/02/15 05:08:01;;;;;;;9.53;4.33;;;;;;;;;;4932034;29;20679;-68
2024/02/15 05:10:29;;;;;;;9.73;4.50;;;;;;;;;;4934047;29;20572;-65
2024/02/15 05:13:00;;;;;;;7.55;4.70;;;;;;;;;;4942138;29;20659;-65
2024/02/15 05:15:29;;;;;;;8.03;4.73;;;;;;;;;;4951843;29;20200;-66
2024/02/15 05:17:57;;;;;;;7.20;5.47;;;;;;;;;;4934430;29;20624;-65
2024/02/15 05:20:26;;;;;;;6.83;4.60;;;;;;;;;;4917200;29;20207;-66
2024/02/15 05:22:55;;;;;;;4.37;4.07;;;;;;;;;;4941363;29;20630;-65
2024/02/15 05:25:26;;;;;;;9.40;5.17;;;;;;;;;;4944106;29;20628;-65
2024/02/15 05:27:54;;;;;;;7.88;4.88;;;;;;;;;;4949733;29;20643;-66
2024/02/15 05:30:23;;;;;;;8.87;5.40;;;;;;;;;;4936953;29;20201;-65
2024/02/15 05:32:52;;;;;;;7.47;5.80;;;;;;;;;;4939144;29;20670;-67
2024/02/15 05:35:20;;;;;;;6.43;4.60;;;;;;;;;;4949434;29;21124;-66
2024/02/15 05:37:52;;;;;;;7.30;5.07;;;;;;;;;;4946952;29;20630;-66
2024/02/15 05:40:20;;;;;;;9.18;5.10;;;;;;;;;;4949411;29;20196;-65
2024/02/15 05:42:49;;;;;;;5.50;4.70;;;;;;;;;;4941591;28;20239;-65
2024/02/15 05:45:32;;;;;;;5.47;4.60;;;;;;;;;;4939985;29;21055;-66
2024/02/15 05:48:01;;;;;;;5.15;4.75;;;;;;;;;;4943553;29;20642;-67
2024/02/15 05:50:30;;;;;;;9.80;4.95;;;;;;;;;;4933151;29;20205;-66
2024/02/15 05:53:01;;;;;;;9.23;5.80;;;;;;;;;;4941150;29;20231;-66
2024/02/15 05:55:31;;;;;;;6.05;4.60;;;;;;;;;;4948670;29;20608;-67
2024/02/15 05:57:59;;;;;;;7.05;5.53;;;;;;;;;;4948009;29;20207;-65
2024/02/15 06:00:29;;;;;;;5.18;4.68;;;;;;;;;;4949277;29;20204;-66
2024/02/15 06:02:57;;;;;;;8.00;5.07;;;;;;;;;;4937293;29;20208;-68
2024/02/15 06:05:26;;;;;;;7.30;5.15;;;;;;;;;;4933995;29;20625;-65
2024/02/15 06:07:54;;;;;;;6.35;5.75;;;;;;;;;;4944181;29;20208;-69
2024/02/15 06:10:24;;;;;;;5.90;4.95;;;;;;;;;;4925573;29;20197;-68
2024/02/15 06:12:52;;;;;;;8.57;5.78;;;;;;;;;;4943379;29;20221;-69
2024/02/15 06:15:21;;;;;;;6.50;5.27;;;;;;;;;;4932210;29;20219;-69
2024/02/15 06:17:49;;;;;;;6.35;5.63;;;;;;;;;;4933767;29;21044;-69
2024/02/15 06:20:19;;;;;;;6.55;5.95;;;;;;;;;;4934254;29;20211;-69
2024/02/15 06:22:47;;;;;;;8.35;5.85;;;;;;;;;;4939886;29;20222;-70
2024/02/15 06:25:20;;;;;;;9.65;6.40;;;;;;;;;;4950512;29;20196;-70
2024/02/15 06:27:58;;;;;;;8.43;6.28;;;;;;;;;;4950096;29;20442;-68
2024/02/15 06:41:42;;;;;;;8.70;6.53;;;;;;;;;;4939158;29;20215;-68
2024/02/15 06:44:12;;;;;;;11.65;6.30;;;;;;;;;;4937083;29;20236;-68
2024/02/15 06:46:41;;;;;;;9.82;6.72;;;;;;;;;;4950449;29;20204;-68
2024/02/15 06:49:09;;;;;;;12.77;6.68;;;;;;;;;;4951457;29;20202;-68
2024/02/15 06:51:40;;;;;;;9.05;6.20;;;;;;;;;;4952641;29;20204;-69
2024/02/15 06:54:08;;;;;;;8.60;6.57;;;;;;;;;;4950420;29;20212;-69
2024/02/15 06:56:39;;;;;;;16.38;7.00;;;;;;;;;;4948822;29;20262;-70
2024/02/15 06:59:07;;;;;;;8.90;6.63;;;;;;;;;;4919918;29;20259;-69
2024/02/15 07:01:38;;;;;;;9.20;6.13;;;;;;;;;;4946091;29;20214;-69
2024/02/15 07:04:06;;;;;;;13.38;6.32;;;;;;;;;;4946366;29;20200;-69
2024/02/15 07:06:37;;;;;;;13.02;6.68;;;;;;;;;;4941411;29;20196;-69
2024/02/15 07:09:05;;;;;;;9.48;8.10;;;;;;;;;;4941116;29;20670;-70
2024/02/15 07:11:34;;;;;;;9.68;7.13;;;;;;;;;;4936878;29;20196;-68
2024/02/15 07:14:04;;;;;;;9.25;7.38;;;;;;;;;;4943374;29;20223;-70
2024/02/15 07:16:33;;;;;;;10.30;6.35;;;;;;;;;;4951393;29;20694;-69
2024/02/15 07:19:03;;;;;;;7.95;6.22;;;;;;;;;;4946005;29;20206;-69
2024/02/15 07:21:31;;;;;;;10.98;7.30;;;;;;;;;;4946187;29;20204;-69
2024/02/15 07:24:00;;;;;;;9.50;7.45;;;;;;;;;;4947337;29;20206;-69
2024/02/15 07:26:28;;;;;;;9.93;7.13;;;;;;;;;;4950605;28;20238;-69
2024/02/15 07:28:57;;;;;;;13.23;7.53;;;;;;;;;;4952889;29;20663;-68
2024/02/15 07:31:29;;;;;;;13.95;6.85;;;;;;;;;;4944646;29;20212;-71
2024/02/15 07:33:58;;;;;;;8.13;7.32;;;;;;;;;;4918953;29;20593;-69
2024/02/15 07:36:27;;;;;;;11.68;7.95;;;;;;;;;;4946107;28;20209;-70
2024/02/15 07:39:00;;;;;;;13.55;7.30;;;;;;;;;;4936824;29;20205;-69
2024/02/15 10:22:29;;;;;;;6.43;4.20;;;;;;;;;;5099870;27;20751;-70
2024/02/15 10:25:12;;;;;;;8.67;4.53;;;;;;;;;;5097993;28;20669;-71
2024/02/15 10:27:40;;;;;;;11.00;8.67;;;;;;;;;;5095364;28;20624;-68
2024/02/15 10:30:18;;;;;;;10.40;5.17;;;;;;;;;;5088085;28;20970;-68
2024/02/15 10:32:48;;;;;;;6.37;5.70;;;;;;;;;;5083285;28;21011;-69
2024/02/15 10:35:22;;;;;;;5.30;4.90;;;;;;;;;;5083494;28;20613;-69
2024/02/15 10:37:52;;;;;;;9.13;5.50;;;;;;;;;;5078865;28;21135;-70
2024/02/15 10:40:21;;;;;;;19.63;6.83;;;;;;;;;;5082457;28;20648;-69
2024/02/15 10:42:50;;;;;;;6.67;6.10;;;;;;;;;;5084538;28;20647;-70
2024/02/15 10:45:19;;;;;;;6.30;5.90;;;;;;;;;;5064543;28;20640;-68
2024/02/15 10:47:47;;;;;;;7.80;7.20;;;;;;;;;;5075867;28;20626;-69
2024/02/15 10:50:16;;;;;;;7.07;6.47;;;;;;;;;;5084222;28;20674;-69
2024/02/15 10:52:47;;;;;;;6.37;5.80;;;;;;;;;;5075410;28;20618;-70
2024/02/15 10:55:22;;;;;;;11.40;6.43;;;;;;;;;;5063827;28;20602;-70
2024/02/15 10:57:53;;;;;;;11.33;7.27;;;;;;;;;;5075416;28;20666;-71
2024/02/15 11:00:25;;;;;;;6.53;6.03;;;;;;;;;;5083143;28;20678;-70
2024/02/15 11:03:04;;;;;;;6.60;6.20;;;;;;;;;;5073558;28;21132;-70
2024/02/15 11:05:34;;;;;;;8.03;7.30;;;;;;;;;;5082359;28;20601;-70
2024/02/15 11:08:03;;;;;;;8.10;7.30;;;;;;;;;;5079526;28;20617;-70
2024/02/15 11:10:33;;;;;;;8.60;7.80;;;;;;;;;;5081794;28;20652;-70
2024/02/15 11:13:02;;;;;;;7.73;7.20;;;;;;;;;;5073773;28;20917;-71
2024/02/15 11:15:45;;;;;;;7.20;6.77;;;;;;;;;;5084256;28;20655;-71
2024/02/15 11:18:13;;;;;;;9.47;7.87;;;;;;;;;;5083481;28;20613;-70
2024/02/15 11:20:52;;;;;;;8.17;7.47;;;;;;;;;;5082902;28;21238;-71
2024/02/15 11:23:30;;;;;;;7.20;6.70;;;;;;;;;;5078927;28;20617;-71
2024/02/15 11:26:00;;;;;;;7.40;7.00;;;;;;;;;;5068431;28;20627;-68
2024/02/15 11:28:39;;;;;;;7.00;6.60;;;;;;;;;;5070201;28;20609;-69
2024/02/15 11:31:08;;;;;;;7.60;7.03;;;;;;;;;;5068947;28;20688;-69
2024/02/15 11:33:38;;;;;;;8.37;7.97;;;;;;;;;;5060831;28;20622;-70
2024/02/15 11:36:07;;;;;;;8.43;7.70;;;;;;;;;;5062241;28;20614;-70
2024/02/15 11:38:35;;;;;;;8.40;7.60;;;;;;;;;;5057416;28;20615;-70
2024/02/15 11:41:08;;;;;;;9.40;8.80;;;;;;;;;;5069554;28;20618;-71
2024/02/15 11:44:04;;;;;;;9.53;8.90;;;;;;;;;;5066966;28;20627;-71
2024/02/15 11:46:34;;;;;;;9.70;9.30;;;;;;;;;;5062983;28;20618;-73
2024/02/15 11:49:03;;;;;;;10.10;9.60;;;;;;;;;;5053158;28;20633;-71
2024/02/15 11:51:36;;;;;;;10.50;9.73;;;;;;;;;;5065275;28;20656;-71
2024/02/15 11:54:10;;;;;;;11.33;10.73;;;;;;;;;;5066051;28;21089;-72
2024/02/15 11:56:54;;;;;;;12.63;11.73;;;;;;;;;;5056900;28;20621;-71
2024/02/15 11:59:31;;;;;;;11.03;10.50;;;;;;;;;;5056692;28;20610;-71
2024/02/15 12:18:46;;;;;;;11.20;10.60;;;;;;;;;;5058116;28;21187;-71
2024/02/15 12:21:15;;;;;;;11.20;10.80;;;;;;;;;;5055345;28;20655;-71
2024/02/15 12:23:43;;;;;;;12.43;11.60;;;;;;;;;;5060039;28;20629;-70
2024/02/15 12:26:14;;;;;;;11.30;10.80;;;;;;;;;;5057311;28;20617;-70
2024/02/15 12:28:44;;;;;;;11.57;10.80;;;;;;;;;;5057245;28;20609;-72
2024/02/15 12:31:13;;;;;;;11.40;10.70;;;;;;;;;;5054989;28;20784;-72
2024/02/15 12:33:42;;;;;;;12.20;11.30;;;;;;;;;;5064600;28;20675;-71
2024/02/15 12:36:10;;;;;;;11.50;10.80;;;;;;;;;;5056649;28;20623;-71
2024/02/15 12:38:39;;;;;;;13.93;12.73;;;;;;;;;;5060813;28;20626;-70
2024/02/15 12:41:18;;;;;;;13.87;12.07;;;;;;;;;;5055552;28;20615;-70
2024/02/15 12:43:48;;;;;;;12.23;11.23;;;;;;;;;;5043279;28;20643;-71
2024/02/15 12:46:19;;;;;;;11.20;10.60;;;;;;;;;;5058156;28;20622;-71
2024/02/15 12:48:49;;;;;;;11.97;10.90;;;;;;;;;;5060422;28;20595;-70
2024/02/15 12:51:18;;;;;;;10.93;10.43;;;;;;;;;;5059146;28;20623;-70
2024/02/15 12:53:46;;;;;;;12.10;11.10;;;;;;;;;;5061544;28;20618;-70
2024/02/15 12:56:24;;;;;;;11.60;10.90;;;;;;;;;;5048603;28;21048;-71
2024/02/15 12:58:53;;;;;;;12.07;11.27;;;;;;;;;;5051213;28;20595;-71
2024/02/15 13:01:21;;;;;;;12.53;11.83;;;;;;;;;;5055897;28;20648;-70
2024/02/15 13:03:51;;;;;;;12.60;11.47;;;;;;;;;;5063882;28;20624;-72
2024/02/15 13:06:23;;;;;;;12.27;11.67;;;;;;;;;;5056692;28;20679;-71
2024/02/15 13:08:52;;;;;;;12.10;11.50;;;;;;;;;;5068620;28;21075;-70
2024/02/15 13:11:20;;;;;;;11.90;11.40;;;;;;;;;;5068214;28;20976;-69
2024/02/15 13:13:48;;;;;;;12.77;11.87;;;;;;;;;;5067909;28;21054;-70
2024/02/15 13:16:18;;;;;;;13.53;12.13;;;;;;;;;;5052877;28;20999;-70
2024/02/15 13:18:47;;;;;;;12.50;11.80;;;;;;;;;;5068484;28;20954;-70
2024/02/15 13:21:17;;;;;;;12.40;11.67;;;;;;;;;;5060504;28;20654;-69
2024/02/15 13:23:45;;;;;;;11.80;11.10;;;;;;;;;;5056226;28;20652;-70
2024/02/15 13:26:14;;;;;;;12.37;11.67;;;;;;;;;;5059656;28;20640;-70
2024/02/15 13:28:44;;;;;;;11.77;11.17;;;;;;;;;;5051358;28;20639;-70
2024/02/15 13:31:13;;;;;;;12.17;11.60;;;;;;;;;;5051789;28;20615;-70
2024/02/15 13:33:42;;;;;;;15.00;13.90;;;;;;;;;;5055341;28;21253;-69
2024/02/15 13:36:12;;;;;;;12.53;11.93;;;;;;;;;;5050307;28;21475;-69
2024/02/15 13:38:42;;;;;;;12.97;12.30;;;;;;;;;;5054478;28;20627;-70
2024/02/15 13:41:10;;;;;;;12.93;12.23;;;;;;;;;;5054735;28;21200;-70
2024/02/15 13:43:41;;;;;;;13.10;12.47;;;;;;;;;;5056429;28;20693;-69
2024/02/15 13:46:09;;;;;;;13.00;12.20;;;;;;;;;;5059089;28;20614;-70
2024/02/15 13:48:37;;;;;;;13.37;12.57;;;;;;;;;;5047692;28;20627;-70
2024/02/15 13:51:09;;;;;;;12.80;12.10;;;;;;;;;;5058450;28;20624;-70
2024/02/15 13:53:37;;;;;;;13.00;12.30;;;;;;;;;;5056445;28;20660;-70
2024/02/15 13:56:06;;;;;;;13.00;12.37;;;;;;;;;;5062466;28;20668;-70
2024/02/15 13:58:34;;;;;;;13.53;12.93;;;;;;;;;;5060245;28;21120;-70
2024/02/15 14:01:04;;;;;;;14.43;13.33;;;;;;;;;;5060925;28;20611;-70
2024/02/15 14:03:33;;;;;;;13.50;12.63;;;;;;;;;;5061360;28;21198;-68
2024/02/15 14:06:01;;;;;;;13.10;12.43;;;;;;;;;;5049410;28;21172;-70
2024/02/15 14:08:31;;;;;;;13.67;13.00;;;;;;;;;;5055649;28;20618;-70
2024/02/15 14:10:59;;;;;;;13.33;12.40;;;;;;;;;;5060837;28;20633;-69
2024/02/15 14:13:30;;;;;;;13.47;12.73;;;;;;;;;;5063821;28;20679;-70
2024/02/15 14:15:59;;;;;;;13.07;12.37;;;;;;;;;;5055221;28;21258;-68
2024/02/15 14:18:30;;;;;;;13.40;12.53;;;;;;;;;;5059559;28;20725;-69
2024/02/15 14:21:00;;;;;;;13.87;12.90;;;;;;;;;;5063919;28;20658;-71
2024/02/15 14:23:28;;;;;;;13.23;12.50;;;;;;;;;;5063422;28;20646;-69
2024/02/15 14:26:00;;;;;;;14.40;13.70;;;;;;;;;;5066962;28;20622;-70
2024/02/15 14:28:28;;;;;;;12.50;12.00;;;;;;;;;;5056520;28;20618;-69
2024/02/15 14:33:43;;;;;;;13.00;12.10;;;;;;;;;;5063048;28;20657;-69
2024/02/15 14:36:11;;;;;;;13.00;12.13;;;;;;;;;;5062127;28;20659;-69
2024/02/15 14:38:39;;;;;;;13.63;12.53;;;;;;;;;;5059634;28;20699;-70
2024/02/15 14:41:10;;;;;;;13.03;12.17;;;;;;;;;;5057021;28;20723;-70
2024/02/15 14:43:39;;;;;;;14.03;13.07;;;;;;;;;;5056975;28;20647;-70
2024/02/15 14:46:08;;;;;;;15.00;13.90;;;;;;;;;;5057335;28;20614;-70
2024/02/15 14:48:36;;;;;;;13.93;13.10;;;;;;;;;;5053374;28;20614;-70
2024/02/15 14:51:04;;;;;;;14.00;13.03;;;;;;;;;;5050788;28;20653;-69
2024/02/15 14:53:33;;;;;;;13.50;12.70;;;;;;;;;;5054166;28;21059;-70
2024/02/15 14:56:04;;;;;;;13.77;12.93;;;;;;;;;;5054823;28;20693;-70
2024/02/15 14:58:35;;;;;;;15.40;14.40;;;;;;;;;;5052715;28;21007;-70
2024/02/15 15:01:03;;;;;;;13.97;12.97;;;;;;;;;;5052699;28;20660;-69
2024/02/15 15:03:33;;;;;;;14.50;13.27;;;;;;;;;;5055950;28;20606;-69
2024/02/15 15:14:20;;;;;;;13.30;12.03;;;;;;;;;;5058070;28;21286;-70
2024/02/15 15:16:49;;;;;;;14.80;13.70;;;;;;;;;;5065380;28;20633;-69
2024/02/15 15:19:17;;;;;;;15.27;14.40;;;;;;;;;;5055474;28;21240;-70
2024/02/15 15:21:46;;;;;;;13.93;13.00;;;;;;;;;;5059181;28;21334;-71
2024/02/15 15:24:14;;;;;;;14.67;13.40;;;;;;;;;;5062950;28;20626;-70
2024/02/15 15:26:45;;;;;;;13.73;12.77;;;;;;;;;;5053915;28;20619;-70
2024/02/15 15:29:14;;;;;;;14.43;13.13;;;;;;;;;;5057717;28;20646;-70
2024/02/15 15:31:44;;;;;;;38.27;30.90;;;;;;;;;;5060099;28;20672;-70
2024/02/15 15:34:12;;;;;;;21.37;19.33;;;;;;;;;;5059040;28;20655;-71
2024/02/15 15:36:43;;;;;;;24.70;21.43;;;;;;;;;;5063012;28;20618;-70
2024/02/15 15:39:11;;;;;;;21.07;19.07;;;;;;;;;;5055150;28;20602;-70
2024/02/15 15:41:40;;;;;;;12.10;11.10;;;;;;;;;;5051846;28;20625;-70
2024/02/15 15:44:08;;;;;;;11.30;10.60;;;;;;;;;;5055802;28;20658;-69
2024/02/15 15:46:37;;;;;;;12.27;11.07;;;;;;;;;;5057285;28;20621;-70
2024/02/15 15:49:06;;;;;;;12.13;11.17;;;;;;;;;;5054248;28;21010;-70
2024/02/15 15:51:34;;;;;;;11.40;10.70;;;;;;;;;;5055430;28;20621;-70
2024/02/15 15:54:03;;;;;;;12.47;10.87;;;;;;;;;;5057332;28;20665;-70
2024/02/15 15:56:34;;;;;;;11.33;10.43;;;;;;;;;;5050352;28;20695;-70
2024/02/15 15:59:05;;;;;;;11.37;10.57;;;;;;;;;;5049422;28;20615;-69
2024/02/15 16:01:35;;;;;;;19.40;17.60;;;;;;;;;;5048733;28;21012;-70
2024/02/15 16:04:03;;;;;;;21.40;17.87;;;;;;;;;;5060646;28;20618;-70
2024/02/15 16:06:33;;;;;;;15.50;13.90;;;;;;;;;;5057192;28;20672;-69
2024/02/15 16:09:03;;;;;;;13.43;12.30;;;;;;;;;;5056090;28;20956;-69
2024/02/15 16:11:31;;;;;;;23.87;21.40;;;;;;;;;;5058661;28;20619;-69
2024/02/15 16:13:59;;;;;;;17.93;16.63;;;;;;;;;;5056434;28;20654;-69
2024/02/15 16:16:29;;;;;;;17.67;14.13;;;;;;;;;;5049057;28;20622;-70
2024/02/15 16:18:58;;;;;;;13.97;11.43;;;;;;;;;;5048618;28;21389;-70
2024/02/15 16:21:26;;;;;;;8.97;8.17;;;;;;;;;;5054658;28;20655;-69
2024/02/15 16:23:56;;;;;;;8.67;8.00;;;;;;;;;;5067265;28;20686;-69
2024/02/15 16:26:25;;;;;;;9.53;7.30;;;;;;;;;;5067762;28;20996;-69
2024/02/15 16:28:53;;;;;;;9.00;7.53;;;;;;;;;;5062560;28;21197;-71
2024/02/15 16:31:21;;;;;;;9.20;8.40;;;;;;;;;;5056870;28;20615;-69
2024/02/15 16:33:49;;;;;;;9.20;7.83;;;;;;;;;;5068576;28;21041;-70
2024/02/15 16:36:17;;;;;;;8.10;7.50;;;;;;;;;;5066789;28;20788;-69
2024/02/15 16:38:46;;;;;;;6.40;6.00;;;;;;;;;;5065598;28;20626;-70
2024/02/15 16:41:16;;;;;;;9.87;8.07;;;;;;;;;;5047709;28;20639;-69
2024/02/15 16:43:46;;;;;;;13.63;11.07;;;;;;;;;;5056045;28;21105;-69
2024/02/15 16:46:14;;;;;;;22.33;16.13;;;;;;;;;;5051267;28;20642;-71
2024/02/15 16:48:42;;;;;;;18.53;10.63;;;;;;;;;;5059505;28;20971;-71
2024/02/15 16:51:11;;;;;;;18.10;10.33;;;;;;;;;;5064762;28;20618;-70
2024/02/15 16:53:39;;;;;;;15.07;12.73;;;;;;;;;;5054965;28;20665;-71
2024/02/15 16:56:07;;;;;;;15.17;10.67;;;;;;;;;;5049246;28;20627;-71
2024/02/15 16:58:37;;;;;;;9.70;8.80;;;;;;;;;;5055448;28;20615;-71
2024/02/15 17:01:05;;;;;;;9.57;8.63;;;;;;;;;;5058036;28;20618;-71
2024/02/15 17:03:33;;;;;;;10.93;7.40;;;;;;;;;;5051608;28;20621;-71
2024/02/15 17:06:03;;;;;;;10.10;6.90;;;;;;;;;;5058115;28;20648;-71
2024/02/15 17:08:31;;;;;;;10.10;7.20;;;;;;;;;;5046708;28;20626;-70
2024/02/15 17:10:59;;;;;;;7.23;6.50;;;;;;;;;;5047808;28;20615;-71
2024/02/15 17:13:27;;;;;;;6.00;5.60;;;;;;;;;;5052052;28;20658;-71
2024/02/15 17:15:57;;;;;;;8.37;4.73;;;;;;;;;;5054677;28;20615;-71
2024/02/15 17:18:26;;;;;;;5.70;5.30;;;;;;;;;;5058531;28;20615;-70
2024/02/15 17:20:54;;;;;;;9.80;5.10;;;;;;;;;;5051185;28;20719;-71
2024/02/15 17:23:24;;;;;;;6.03;5.43;;;;;;;;;;5050294;28;20629;-71
2024/02/15 17:25:53;;;;;;;8.70;5.50;;;;;;;;;;5049861;28;20611;-71
2024/02/15 17:28:21;;;;;;;7.93;5.27;;;;;;;;;;5050068;28;20625;-71
2024/02/15 17:30:49;;;;;;;5.27;4.83;;;;;;;;;;5066242;28;21448;-71
2024/02/15 17:33:19;;;;;;;6.97;6.20;;;;;;;;;;5053442;28;20623;-69
2024/02/15 17:35:48;;;;;;;13.23;8.53;;;;;;;;;;5065254;28;20640;-71
2024/02/15 17:38:17;;;;;;;8.50;7.53;;;;;;;;;;5060128;28;21080;-71
2024/02/15 17:40:45;;;;;;;12.90;8.93;;;;;;;;;;5049658;28;20626;-71
2024/02/15 17:43:13;;;;;;;13.83;7.27;;;;;;;;;;5050967;28;20655;-71
2024/02/15 17:45:41;;;;;;;12.10;8.13;;;;;;;;;;5053084;28;20610;-70
2024/02/15 17:48:09;;;;;;;8.10;5.40;;;;;;;;;;5046290;28;21020;-71
2024/02/15 17:50:39;;;;;;;7.97;7.30;;;;;;;;;;5047206;28;21064;-71
2024/02/15 17:53:07;;;;;;;20.57;11.73;;;;;;;;;;5046299;28;20598;-70
2024/02/15 17:55:36;;;;;;;25.60;13.80;;;;;;;;;;5047309;28;21238;-70
2024/02/15 17:58:05;;;;;;;25.77;15.30;;;;;;;;;;5045259;28;20623;-71
2024/02/15 18:00:33;;;;;;;15.93;10.80;;;;;;;;;;5047159;28;21179;-70
2024/02/15 18:03:02;;;;;;;25.37;12.53;;;;;;;;;;5048964;28;20611;-69
2024/02/15 18:05:31;;;;;;;28.67;14.67;;;;;;;;;;5056250;28;20619;-71